Aérodrome :
LOGIN :

S'inscrire | Disclaimer

   EN    FR    IT 

 










Légende :    VFR   VFR Marginal   IFR   IFR Intensif   IFR Très Intensif
Visi : 
Plafond : 
>= 8 km
>= 3000ft
5 à 8 km
1000 à 3000 ft
1500m à 5 km
500 à 1000 ft
800 à 1500m
200 à 500 ft
< 800m
< 200 ft
Symboles :   Orages  Brouillard  Fortes neiges  Fortes précipitations  Vent > 20 kt
SIGMETs :   Divers  Orages  Givrage  Turbulence  Onde Orograph.  Cendres Volcan.







- Altitude de l'aérodrome : 197 ft
- Code IATA : XOG
- Voir les cartes d'approche


LFMO - Orange

DERNIER METAR :
  • 151500Z AUTO 13018KT 100V160 9999 FEW064/// OVC096/// ///TCU 22/09 Q1011 BECMG 13015G25KT NSC

METARs EXPIRÉS :
  • 151430Z AUTO 14013KT CAVOK 22/08 Q1011 BECMG 13015G25KT
  • 151400Z AUTO 13016G33KT 100V160 CAVOK 22/08 Q1010 NOSIG
  • 151330Z AUTO 13014KT CAVOK 22/08 Q1010 TEMPO 14015G25KT
  • 151300Z AUTO 12013KT 9999 FEW078 OVC100 22/08 Q1010 TEMPO 14020G35KT
  • 151230Z AUTO 12009KT 050V150 9999 ///TCU 22/09 Q1010 TEMPO 14020G35KT BECMG NSC

TAF TAF LFMO
Valide du 15 à 15h jusqu'au 16 à 15h UTC


151400Z 1515/1615 13015G25KT CAVOK
BECMG 1518/1520 15012KT
BECMG 1600/1602 36005KT
Pas de NOTAMs connus pour ce terrain.
1 SIGMET publié pour la FIR Marseille (LFMM) :
 
Turbulence forte
LFMM SIGMET 13 VALID 151400/151800 LFPW
LFMM MARSEILLE FIR/UIR SEV TURB FCST WI N4400 E00245 - N4600 E00300 - N4600 E00315 - N4345 E00415 - N4345 E00700 - N4245 E00700 - N4330 E00300 - N4400 E00245 SFC/FL070 STNR NC=



MET'MAP, la Météo Aéronautique d'un coup d'oeil ! - Copyright ORBIFLY Décembre 2007 - Disclaimer

ORBIFLY MET'MAP TEAM :

Programmation & Développement : Alexandra Zaïnal
Conception & Développement : Baudouin d'Aumeries
Co-Programmation & Développement : Marc-Olivier Méhu
Soutien technique & logistique : Manuel Goepfert

Contact : metmap@orbifly.com




SOURCES & CREDITS :

   NOAA